sensor_id;sensor_type;location;lat;lon;timestamp;temperature;humidity
2639;DHT22;1329;51.384;7.122;2024-03-02T00:01:38;9.50;1.00
2639;DHT22;1329;51.384;7.122;2024-03-02T00:04:07;9.50;1.00
2639;DHT22;1329;51.384;7.122;2024-03-02T00:06:35;9.50;1.00
2639;DHT22;1329;51.384;7.122;2024-03-02T00:09:04;9.60;1.00
2639;DHT22;1329;51.384;7.122;2024-03-02T00:11:35;9.60;1.00
2639;DHT22;1329;51.384;7.122;2024-03-02T00:14:03;9.60;1.00
2639;DHT22;1329;51.384;7.122;2024-03-02T00:16:31;9.60;1.00
2639;DHT22;1329;51.384;7.122;2024-03-02T00:19:01;9.60;1.00
2639;DHT22;1329;51.384;7.122;2024-03-02T00:21:30;9.60;1.00
2639;DHT22;1329;51.384;7.122;2024-03-02T00:23:58;9.60;1.00
2639;DHT22;1329;51.384;7.122;2024-03-02T00:26:28;9.60;1.00
2639;DHT22;1329;51.384;7.122;2024-03-02T00:28:56;9.60;1.00
2639;DHT22;1329;51.384;7.122;2024-03-02T00:31:23;9.60;1.00
2639;DHT22;1329;51.384;7.122;2024-03-02T00:33:51;9.60;1.00
2639;DHT22;1329;51.384;7.122;2024-03-02T00:36:24;9.70;1.00
2639;DHT22;1329;51.384;7.122;2024-03-02T00:38:54;9.60;1.00
2639;DHT22;1329;51.384;7.122;2024-03-02T00:41:23;9.60;1.00
2639;DHT22;1329;51.384;7.122;2024-03-02T00:44:00;9.60;1.00
2639;DHT22;1329;51.384;7.122;2024-03-02T00:46:31;9.60;1.00
2639;DHT22;1329;51.384;7.122;2024-03-02T00:49:01;9.60;1.00
2639;DHT22;1329;51.384;7.122;2024-03-02T00:51:31;9.60;1.00
2639;DHT22;1329;51.384;7.122;2024-03-02T00:54:00;9.60;1.00
2639;DHT22;1329;51.384;7.122;2024-03-02T00:56:30;9.70;1.00
2639;DHT22;1329;51.384;7.122;2024-03-02T00:58:59;9.70;1.00
2639;DHT22;1329;51.384;7.122;2024-03-02T01:01:26;9.70;1.00
2639;DHT22;1329;51.384;7.122;2024-03-02T01:03:53;9.70;1.00
2639;DHT22;1329;51.384;7.122;2024-03-02T01:06:24;9.70;1.00
2639;DHT22;1329;51.384;7.122;2024-03-02T01:08:52;9.70;1.00
2639;DHT22;1329;51.384;7.122;2024-03-02T01:11:19;9.80;1.00
2639;DHT22;1329;51.384;7.122;2024-03-02T01:13:47;9.80;1.00
2639;DHT22;1329;51.384;7.122;2024-03-02T01:16:16;9.80;1.00
2639;DHT22;1329;51.384;7.122;2024-03-02T01:18:44;9.90;1.00
2639;DHT22;1329;51.384;7.122;2024-03-02T01:21:11;9.90;1.00
2639;DHT22;1329;51.384;7.122;2024-03-02T01:23:39;9.90;1.00
2639;DHT22;1329;51.384;7.122;2024-03-02T01:26:06;10.00;1.00
2639;DHT22;1329;51.384;7.122;2024-03-02T01:28:33;10.00;1.00
2639;DHT22;1329;51.384;7.122;2024-03-02T01:31:01;10.00;1.00
2639;DHT22;1329;51.384;7.122;2024-03-02T01:33:30;10.10;1.00
2639;DHT22;1329;51.384;7.122;2024-03-02T01:35:57;10.10;1.00
2639;DHT22;1329;51.384;7.122;2024-03-02T01:38:24;10.20;1.00
2639;DHT22;1329;51.384;7.122;2024-03-02T01:40:52;10.20;1.00
2639;DHT22;1329;51.384;7.122;2024-03-02T01:43:20;10.20;1.00
2639;DHT22;1329;51.384;7.122;2024-03-02T01:45:48;10.20;1.00
2639;DHT22;1329;51.384;7.122;2024-03-02T01:48:15;10.20;1.00
2639;DHT22;1329;51.384;7.122;2024-03-02T01:50:44;10.20;1.00
2639;DHT22;1329;51.384;7.122;2024-03-02T01:53:11;10.20;1.00
2639;DHT22;1329;51.384;7.122;2024-03-02T01:55:38;10.20;1.00
2639;DHT22;1329;51.384;7.122;2024-03-02T01:58:06;10.20;1.00
2639;DHT22;1329;51.384;7.122;2024-03-02T02:00:34;10.10;1.00
2639;DHT22;1329;51.384;7.122;2024-03-02T02:03:01;10.10;1.00
2639;DHT22;1329;51.384;7.122;2024-03-02T02:05:28;10.10;1.00
2639;DHT22;1329;51.384;7.122;2024-03-02T02:08:01;10.00;1.00
2639;DHT22;1329;51.384;7.122;2024-03-02T02:10:28;10.00;1.00
2639;DHT22;1329;51.384;7.122;2024-03-02T02:12:56;9.90;1.00
2639;DHT22;1329;51.384;7.122;2024-03-02T02:15:27;9.90;1.00
2639;DHT22;1329;51.384;7.122;2024-03-02T02:17:56;9.80;1.00
2639;DHT22;1329;51.384;7.122;2024-03-02T02:20:24;9.80;1.00
2639;DHT22;1329;51.384;7.122;2024-03-02T02:23:00;9.70;1.00
2639;DHT22;1329;51.384;7.122;2024-03-02T02:25:31;9.70;1.00
2639;DHT22;1329;51.384;7.122;2024-03-02T02:27:58;9.60;1.00
2639;DHT22;1329;51.384;7.122;2024-03-02T02:30:27;9.60;1.00
2639;DHT22;1329;51.384;7.122;2024-03-02T02:32:57;9.60;1.00
2639;DHT22;1329;51.384;7.122;2024-03-02T02:35:26;9.60;1.00
2639;DHT22;1329;51.384;7.122;2024-03-02T02:37:56;9.60;1.00
2639;DHT22;1329;51.384;7.122;2024-03-02T02:40:26;9.60;1.00
2639;DHT22;1329;51.384;7.122;2024-03-02T02:42:55;9.60;1.00
2639;DHT22;1329;51.384;7.122;2024-03-02T02:45:22;9.70;1.00
2639;DHT22;1329;51.384;7.122;2024-03-02T02:47:50;9.70;1.00
2639;DHT22;1329;51.384;7.122;2024-03-02T02:50:17;9.70;1.00
2639;DHT22;1329;51.384;7.122;2024-03-02T02:52:45;9.80;1.00
2639;DHT22;1329;51.384;7.122;2024-03-02T02:55:14;9.80;1.00
2639;DHT22;1329;51.384;7.122;2024-03-02T02:57:42;9.80;1.00
2639;DHT22;1329;51.384;7.122;2024-03-02T03:00:12;9.90;1.00
2639;DHT22;1329;51.384;7.122;2024-03-02T03:02:42;9.90;1.00
2639;DHT22;1329;51.384;7.122;2024-03-02T03:05:12;9.90;1.00
2639;DHT22;1329;51.384;7.122;2024-03-02T03:07:40;10.00;1.00
2639;DHT22;1329;51.384;7.122;2024-03-02T03:10:08;10.00;1.00
2639;DHT22;1329;51.384;7.122;2024-03-02T03:12:37;10.00;1.00
2639;DHT22;1329;51.384;7.122;2024-03-02T03:15:08;10.00;1.00
2639;DHT22;1329;51.384;7.122;2024-03-02T03:17:37;10.10;1.00
2639;DHT22;1329;51.384;7.122;2024-03-02T03:20:07;10.10;1.00
2639;DHT22;1329;51.384;7.122;2024-03-02T03:22:36;10.10;1.00
2639;DHT22;1329;51.384;7.122;2024-03-02T03:25:04;10.20;1.00
2639;DHT22;1329;51.384;7.122;2024-03-02T03:27:33;10.20;1.00
2639;DHT22;1329;51.384;7.122;2024-03-02T03:30:02;10.20;1.00
2639;DHT22;1329;51.384;7.122;2024-03-02T03:32:35;10.30;1.00
2639;DHT22;1329;51.384;7.122;2024-03-02T03:35:02;10.30;1.00
2639;DHT22;1329;51.384;7.122;2024-03-02T03:37:33;10.30;1.00
2639;DHT22;1329;51.384;7.122;2024-03-02T03:40:01;10.40;1.00
2639;DHT22;1329;51.384;7.122;2024-03-02T03:42:33;10.40;1.00
2639;DHT22;1329;51.384;7.122;2024-03-02T03:45:01;10.40;1.00
2639;DHT22;1329;51.384;7.122;2024-03-02T03:47:32;10.40;1.00
2639;DHT22;1329;51.384;7.122;2024-03-02T03:50:00;10.40;1.00
2639;DHT22;1329;51.384;7.122;2024-03-02T03:52:30;10.40;1.00
2639;DHT22;1329;51.384;7.122;2024-03-02T03:54:57;10.40;1.00
2639;DHT22;1329;51.384;7.122;2024-03-02T03:57:25;10.40;1.00
2639;DHT22;1329;51.384;7.122;2024-03-02T03:59:53;10.40;1.00
2639;DHT22;1329;51.384;7.122;2024-03-02T04:02:21;10.40;1.00
2639;DHT22;1329;51.384;7.122;2024-03-02T04:04:50;10.40;1.00
2639;DHT22;1329;51.384;7.122;2024-03-02T04:07:17;10.40;1.00
2639;DHT22;1329;51.384;7.122;2024-03-02T04:09:45;10.50;1.00
2639;DHT22;1329;51.384;7.122;2024-03-02T04:12:18;10.40;1.00
2639;DHT22;1329;51.384;7.122;2024-03-02T04:14:45;10.40;1.00
2639;DHT22;1329;51.384;7.122;2024-03-02T04:17:15;10.40;1.00
2639;DHT22;1329;51.384;7.122;2024-03-02T04:19:44;10.40;1.00
2639;DHT22;1329;51.384;7.122;2024-03-02T04:22:12;10.40;1.00
2639;DHT22;1329;51.384;7.122;2024-03-02T04:24:39;10.40;1.00
2639;DHT22;1329;51.384;7.122;2024-03-02T04:27:07;10.40;1.00
2639;DHT22;1329;51.384;7.122;2024-03-02T04:29:34;10.40;1.00
2639;DHT22;1329;51.384;7.122;2024-03-02T04:32:01;10.40;1.00
2639;DHT22;1329;51.384;7.122;2024-03-02T04:34:29;10.40;1.00
2639;DHT22;1329;51.384;7.122;2024-03-02T04:36:57;10.40;1.00
2639;DHT22;1329;51.384;7.122;2024-03-02T04:39:24;10.30;1.00
2639;DHT22;1329;51.384;7.122;2024-03-02T04:41:52;10.30;1.00
2639;DHT22;1329;51.384;7.122;2024-03-02T04:44:19;10.30;1.00
2639;DHT22;1329;51.384;7.122;2024-03-02T04:46:47;10.20;1.00
2639;DHT22;1329;51.384;7.122;2024-03-02T04:49:14;10.20;1.00
2639;DHT22;1329;51.384;7.122;2024-03-02T04:51:41;10.10;1.00
2639;DHT22;1329;51.384;7.122;2024-03-02T04:54:10;10.10;1.00
2639;DHT22;1329;51.384;7.122;2024-03-02T04:56:40;10.00;1.00
2639;DHT22;1329;51.384;7.122;2024-03-02T04:59:10;9.90;1.00
2639;DHT22;1329;51.384;7.122;2024-03-02T05:01:37;9.90;1.00
2639;DHT22;1329;51.384;7.122;2024-03-02T05:04:04;9.80;1.00
2639;DHT22;1329;51.384;7.122;2024-03-02T05:06:32;9.80;1.00
2639;DHT22;1329;51.384;7.122;2024-03-02T05:08:59;9.70;1.00
2639;DHT22;1329;51.384;7.122;2024-03-02T05:11:30;9.60;1.00
2639;DHT22;1329;51.384;7.122;2024-03-02T05:14:36;9.60;1.00
2639;DHT22;1329;51.384;7.122;2024-03-02T05:17:03;9.60;1.00
2639;DHT22;1329;51.384;7.122;2024-03-02T05:19:31;9.50;1.00
2639;DHT22;1329;51.384;7.122;2024-03-02T05:21:58;9.50;1.00
2639;DHT22;1329;51.384;7.122;2024-03-02T05:24:25;9.40;1.00
2639;DHT22;1329;51.384;7.122;2024-03-02T05:26:55;9.40;1.00
2639;DHT22;1329;51.384;7.122;2024-03-02T05:29:22;9.40;1.00
2639;DHT22;1329;51.384;7.122;2024-03-02T05:31:50;9.30;1.00
2639;DHT22;1329;51.384;7.122;2024-03-02T05:34:17;9.30;1.00
2639;DHT22;1329;51.384;7.122;2024-03-02T05:36:45;9.30;1.00
2639;DHT22;1329;51.384;7.122;2024-03-02T05:39:12;9.30;1.00
2639;DHT22;1329;51.384;7.122;2024-03-02T05:41:39;9.20;1.00
2639;DHT22;1329;51.384;7.122;2024-03-02T05:44:08;9.30;1.00
2639;DHT22;1329;51.384;7.122;2024-03-02T05:46:35;9.20;1.00
2639;DHT22;1329;51.384;7.122;2024-03-02T05:49:02;9.20;1.00
2639;DHT22;1329;51.384;7.122;2024-03-02T05:51:29;9.20;1.00
2639;DHT22;1329;51.384;7.122;2024-03-02T05:53:57;9.20;1.00
2639;DHT22;1329;51.384;7.122;2024-03-02T05:56:26;9.20;1.00
2639;DHT22;1329;51.384;7.122;2024-03-02T05:58:53;9.20;1.00
2639;DHT22;1329;51.384;7.122;2024-03-02T06:01:35;9.20;1.00
2639;DHT22;1329;51.384;7.122;2024-03-02T06:04:03;9.20;1.00
2639;DHT22;1329;51.384;7.122;2024-03-02T06:06:30;9.20;1.00
2639;DHT22;1329;51.384;7.122;2024-03-02T06:08:59;9.10;1.00
2639;DHT22;1329;51.384;7.122;2024-03-02T06:11:26;9.10;1.00
2639;DHT22;1329;51.384;7.122;2024-03-02T06:13:53;9.10;1.00
2639;DHT22;1329;51.384;7.122;2024-03-02T06:16:20;9.10;1.00
2639;DHT22;1329;51.384;7.122;2024-03-02T06:18:49;9.00;1.00
2639;DHT22;1329;51.384;7.122;2024-03-02T06:21:17;8.90;1.00
2639;DHT22;1329;51.384;7.122;2024-03-02T06:23:44;8.90;1.00
2639;DHT22;1329;51.384;7.122;2024-03-02T06:26:11;8.90;1.00
2639;DHT22;1329;51.384;7.122;2024-03-02T06:28:41;8.80;1.00
2639;DHT22;1329;51.384;7.122;2024-03-02T06:31:08;8.80;1.00
2639;DHT22;1329;51.384;7.122;2024-03-02T06:33:35;8.80;1.00
2639;DHT22;1329;51.384;7.122;2024-03-02T06:36:05;8.80;1.00
2639;DHT22;1329;51.384;7.122;2024-03-02T06:38:34;8.70;1.00
2639;DHT22;1329;51.384;7.122;2024-03-02T06:41:01;8.70;1.00
2639;DHT22;1329;51.384;7.122;2024-03-02T06:43:28;8.60;1.00
2639;DHT22;1329;51.384;7.122;2024-03-02T06:45:55;8.60;1.00
2639;DHT22;1329;51.384;7.122;2024-03-02T06:48:23;8.50;1.00
2639;DHT22;1329;51.384;7.122;2024-03-02T06:50:50;8.50;1.00
2639;DHT22;1329;51.384;7.122;2024-03-02T06:53:20;8.50;1.00
2639;DHT22;1329;51.384;7.122;2024-03-02T06:55:48;8.50;1.00
2639;DHT22;1329;51.384;7.122;2024-03-02T06:58:15;8.40;1.00
2639;DHT22;1329;51.384;7.122;2024-03-02T07:00:42;8.40;1.00
2639;DHT22;1329;51.384;7.122;2024-03-02T07:03:10;8.40;1.00
2639;DHT22;1329;51.384;7.122;2024-03-02T07:05:38;8.40;1.00
2639;DHT22;1329;51.384;7.122;2024-03-02T07:08:05;8.30;1.00
2639;DHT22;1329;51.384;7.122;2024-03-02T07:10:35;8.40;1.00
2639;DHT22;1329;51.384;7.122;2024-03-02T07:13:04;8.30;1.00
2639;DHT22;1329;51.384;7.122;2024-03-02T07:15:32;8.30;1.00
2639;DHT22;1329;51.384;7.122;2024-03-02T07:18:25;8.30;1.00
2639;DHT22;1329;51.384;7.122;2024-03-02T07:20:52;8.30;1.00
2639;DHT22;1329;51.384;7.122;2024-03-02T07:23:21;8.30;1.00
2639;DHT22;1329;51.384;7.122;2024-03-02T07:25:54;8.30;1.00
2639;DHT22;1329;51.384;7.122;2024-03-02T07:28:22;8.30;1.00
2639;DHT22;1329;51.384;7.122;2024-03-02T07:30:58;8.30;1.00
2639;DHT22;1329;51.384;7.122;2024-03-02T07:33:28;8.40;1.00
2639;DHT22;1329;51.384;7.122;2024-03-02T07:35:56;8.40;1.00
2639;DHT22;1329;51.384;7.122;2024-03-02T07:38:25;8.40;1.00
2639;DHT22;1329;51.384;7.122;2024-03-02T07:40:54;8.50;1.00
2639;DHT22;1329;51.384;7.122;2024-03-02T07:43:21;8.50;1.00
2639;DHT22;1329;51.384;7.122;2024-03-02T07:45:52;8.60;1.00
2639;DHT22;1329;51.384;7.122;2024-03-02T07:48:19;8.70;1.00
2639;DHT22;1329;51.384;7.122;2024-03-02T07:50:47;8.80;1.00
2639;DHT22;1329;51.384;7.122;2024-03-02T07:53:14;8.90;1.00
2639;DHT22;1329;51.384;7.122;2024-03-02T07:55:41;9.00;1.00
2639;DHT22;1329;51.384;7.122;2024-03-02T07:58:10;9.00;1.00
2639;DHT22;1329;51.384;7.122;2024-03-02T08:00:39;9.10;1.00
2639;DHT22;1329;51.384;7.122;2024-03-02T08:03:06;9.20;1.00
2639;DHT22;1329;51.384;7.122;2024-03-02T08:05:36;9.20;1.00
2639;DHT22;1329;51.384;7.122;2024-03-02T08:08:04;9.30;1.00
2639;DHT22;1329;51.384;7.122;2024-03-02T08:10:32;9.30;1.00
2639;DHT22;1329;51.384;7.122;2024-03-02T08:12:59;9.40;1.00
2639;DHT22;1329;51.384;7.122;2024-03-02T08:15:28;9.40;1.00
2639;DHT22;1329;51.384;7.122;2024-03-02T08:17:55;9.50;1.00
2639;DHT22;1329;51.384;7.122;2024-03-02T08:20:23;9.50;1.00
2639;DHT22;1329;51.384;7.122;2024-03-02T08:22:50;9.60;1.00
2639;DHT22;1329;51.384;7.122;2024-03-02T08:25:20;9.60;1.50
2639;DHT22;1329;51.384;7.122;2024-03-02T08:27:48;9.70;5.80
2639;DHT22;1329;51.384;7.122;2024-03-02T08:30:16;9.80;5.70
2639;DHT22;1329;51.384;7.122;2024-03-02T08:32:45;9.90;4.00
2639;DHT22;1329;51.384;7.122;2024-03-02T08:35:13;10.00;1.00
2639;DHT22;1329;51.384;7.122;2024-03-02T08:37:41;10.10;1.00
2639;DHT22;1329;51.384;7.122;2024-03-02T08:40:10;10.10;1.00
2639;DHT22;1329;51.384;7.122;2024-03-02T08:42:38;10.20;1.00
2639;DHT22;1329;51.384;7.122;2024-03-02T08:45:06;10.20;1.00
2639;DHT22;1329;51.384;7.122;2024-03-02T08:47:34;10.30;1.00
2639;DHT22;1329;51.384;7.122;2024-03-02T08:50:04;10.30;1.00
2639;DHT22;1329;51.384;7.122;2024-03-02T08:52:32;10.40;1.00
2639;DHT22;1329;51.384;7.122;2024-03-02T08:54:59;10.40;1.00
2639;DHT22;1329;51.384;7.122;2024-03-02T08:57:27;10.40;1.00
2639;DHT22;1329;51.384;7.122;2024-03-02T08:59:54;10.40;1.00
2639;DHT22;1329;51.384;7.122;2024-03-02T09:02:22;10.40;1.00
2639;DHT22;1329;51.384;7.122;2024-03-02T09:04:50;10.50;1.00
2639;DHT22;1329;51.384;7.122;2024-03-02T09:07:18;10.50;1.00
2639;DHT22;1329;51.384;7.122;2024-03-02T09:09:46;10.50;1.00
2639;DHT22;1329;51.384;7.122;2024-03-02T09:12:13;10.60;1.00
2639;DHT22;1329;51.384;7.122;2024-03-02T09:14:40;10.60;1.00
2639;DHT22;1329;51.384;7.122;2024-03-02T09:17:08;10.70;1.00
2639;DHT22;1329;51.384;7.122;2024-03-02T09:19:37;10.70;1.00
2639;DHT22;1329;51.384;7.122;2024-03-02T09:22:05;10.70;1.00
2639;DHT22;1329;51.384;7.122;2024-03-02T09:24:33;10.80;1.00
2639;DHT22;1329;51.384;7.122;2024-03-02T09:27:01;10.80;1.00
2639;DHT22;1329;51.384;7.122;2024-03-02T09:29:28;10.90;1.00
2639;DHT22;1329;51.384;7.122;2024-03-02T09:31:55;10.90;1.00
2639;DHT22;1329;51.384;7.122;2024-03-02T09:34:22;11.00;1.00
2639;DHT22;1329;51.384;7.122;2024-03-02T09:36:50;11.00;1.00
2639;DHT22;1329;51.384;7.122;2024-03-02T09:39:18;11.00;1.00
2639;DHT22;1329;51.384;7.122;2024-03-02T09:41:51;11.10;1.00
2639;DHT22;1329;51.384;7.122;2024-03-02T09:44:21;11.10;1.00
2639;DHT22;1329;51.384;7.122;2024-03-02T09:46:49;11.20;1.00
2639;DHT22;1329;51.384;7.122;2024-03-02T09:49:16;11.20;1.00
2639;DHT22;1329;51.384;7.122;2024-03-02T09:51:47;11.20;1.00
2639;DHT22;1329;51.384;7.122;2024-03-02T09:54:16;11.30;1.00
2639;DHT22;1329;51.384;7.122;2024-03-02T09:56:44;11.30;1.00
2639;DHT22;1329;51.384;7.122;2024-03-02T09:59:13;11.40;1.00
2639;DHT22;1329;51.384;7.122;2024-03-02T10:01:56;11.50;1.00
2639;DHT22;1329;51.384;7.122;2024-03-02T10:04:26;11.50;1.00
2639;DHT22;1329;51.384;7.122;2024-03-02T10:07:13;11.50;1.00
2639;DHT22;1329;51.384;7.122;2024-03-02T10:09:42;11.60;1.00
2639;DHT22;1329;51.384;7.122;2024-03-02T10:12:11;11.60;1.00
2639;DHT22;1329;51.384;7.122;2024-03-02T10:14:43;11.70;1.00
2639;DHT22;1329;51.384;7.122;2024-03-02T10:17:12;11.70;1.00
2639;DHT22;1329;51.384;7.122;2024-03-02T10:19:41;11.80;1.00
2639;DHT22;1329;51.384;7.122;2024-03-02T10:22:09;11.80;1.00
2639;DHT22;1329;51.384;7.122;2024-03-02T10:24:37;11.80;1.00
2639;DHT22;1329;51.384;7.122;2024-03-02T10:27:09;11.90;1.00
2639;DHT22;1329;51.384;7.122;2024-03-02T10:29:38;11.90;1.00
2639;DHT22;1329;51.384;7.122;2024-03-02T10:32:09;11.90;1.00
2639;DHT22;1329;51.384;7.122;2024-03-02T10:34:39;12.00;1.00
2639;DHT22;1329;51.384;7.122;2024-03-02T10:37:07;12.00;1.00
2639;DHT22;1329;51.384;7.122;2024-03-02T10:39:35;12.10;1.00
2639;DHT22;1329;51.384;7.122;2024-03-02T10:42:03;12.10;1.00
2639;DHT22;1329;51.384;7.122;2024-03-02T10:44:33;12.10;1.00
2639;DHT22;1329;51.384;7.122;2024-03-02T10:47:01;12.20;1.00
2639;DHT22;1329;51.384;7.122;2024-03-02T10:49:32;12.20;1.00
2639;DHT22;1329;51.384;7.122;2024-03-02T10:51:59;12.30;1.00
2639;DHT22;1329;51.384;7.122;2024-03-02T10:54:29;12.30;1.00
2639;DHT22;1329;51.384;7.122;2024-03-02T10:57:04;12.30;1.00
2639;DHT22;1329;51.384;7.122;2024-03-02T10:59:33;12.30;1.00
2639;DHT22;1329;51.384;7.122;2024-03-02T11:02:03;12.40;1.00
2639;DHT22;1329;51.384;7.122;2024-03-02T11:04:34;12.50;1.00
2639;DHT22;1329;51.384;7.122;2024-03-02T11:07:05;12.50;1.00
2639;DHT22;1329;51.384;7.122;2024-03-02T11:09:35;12.60;1.00
2639;DHT22;1329;51.384;7.122;2024-03-02T11:12:12;12.60;1.00
2639;DHT22;1329;51.384;7.122;2024-03-02T11:14:41;12.70;1.00
2639;DHT22;1329;51.384;7.122;2024-03-02T11:17:10;12.70;1.00
2639;DHT22;1329;51.384;7.122;2024-03-02T11:19:40;12.70;1.00
2639;DHT22;1329;51.384;7.122;2024-03-02T11:22:08;12.80;1.00
2639;DHT22;1329;51.384;7.122;2024-03-02T11:24:36;12.80;1.00
2639;DHT22;1329;51.384;7.122;2024-03-02T11:27:04;12.80;1.00
2639;DHT22;1329;51.384;7.122;2024-03-02T11:29:47;12.90;1.00
2639;DHT22;1329;51.384;7.122;2024-03-02T11:32:16;12.90;1.00
2639;DHT22;1329;51.384;7.122;2024-03-02T11:34:49;13.00;1.00
2639;DHT22;1329;51.384;7.122;2024-03-02T11:37:17;13.00;1.00
2639;DHT22;1329;51.384;7.122;2024-03-02T11:39:46;13.10;1.00
2639;DHT22;1329;51.384;7.122;2024-03-02T11:42:16;13.10;1.00
2639;DHT22;1329;51.384;7.122;2024-03-02T11:44:46;13.20;1.00
2639;DHT22;1329;51.384;7.122;2024-03-02T11:47:15;13.20;1.00
2639;DHT22;1329;51.384;7.122;2024-03-02T11:49:44;13.30;1.00
2639;DHT22;1329;51.384;7.122;2024-03-02T11:52:15;13.30;1.00
2639;DHT22;1329;51.384;7.122;2024-03-02T11:54:44;13.30;1.00
2639;DHT22;1329;51.384;7.122;2024-03-02T11:57:18;13.40;1.00
2639;DHT22;1329;51.384;7.122;2024-03-02T11:59:46;13.40;1.00
2639;DHT22;1329;51.384;7.122;2024-03-02T12:02:16;13.50;1.00
2639;DHT22;1329;51.384;7.122;2024-03-02T12:04:45;13.50;1.00
2639;DHT22;1329;51.384;7.122;2024-03-02T12:07:18;13.50;1.00
2639;DHT22;1329;51.384;7.122;2024-03-02T12:09:47;13.60;1.00
2639;DHT22;1329;51.384;7.122;2024-03-02T12:12:14;13.60;1.00
2639;DHT22;1329;51.384;7.122;2024-03-02T12:14:50;13.70;1.00
2639;DHT22;1329;51.384;7.122;2024-03-02T12:17:20;13.70;1.00
2639;DHT22;1329;51.384;7.122;2024-03-02T12:19:48;13.70;1.00
2639;DHT22;1329;51.384;7.122;2024-03-02T12:22:17;13.80;1.00
2639;DHT22;1329;51.384;7.122;2024-03-02T12:24:45;13.80;1.00
2639;DHT22;1329;51.384;7.122;2024-03-02T12:27:12;13.80;1.00
2639;DHT22;1329;51.384;7.122;2024-03-02T12:29:42;13.80;1.00
2639;DHT22;1329;51.384;7.122;2024-03-02T12:32:09;13.90;1.00
2639;DHT22;1329;51.384;7.122;2024-03-02T12:34:38;13.90;1.00
2639;DHT22;1329;51.384;7.122;2024-03-02T12:37:06;14.00;1.00
2639;DHT22;1329;51.384;7.122;2024-03-02T12:39:34;14.00;1.00
2639;DHT22;1329;51.384;7.122;2024-03-02T12:42:03;14.10;1.00
2639;DHT22;1329;51.384;7.122;2024-03-02T12:44:30;14.10;1.00
2639;DHT22;1329;51.384;7.122;2024-03-02T12:46:57;14.10;1.00
2639;DHT22;1329;51.384;7.122;2024-03-02T12:49:25;14.20;1.00
2639;DHT22;1329;51.384;7.122;2024-03-02T12:51:54;14.20;1.00
2639;DHT22;1329;51.384;7.122;2024-03-02T12:54:23;14.30;1.00
2639;DHT22;1329;51.384;7.122;2024-03-02T12:56:52;14.30;1.00
2639;DHT22;1329;51.384;7.122;2024-03-02T12:59:23;14.40;1.00
2639;DHT22;1329;51.384;7.122;2024-03-02T13:01:52;14.40;1.00
2639;DHT22;1329;51.384;7.122;2024-03-02T13:04:23;14.50;1.00
2639;DHT22;1329;51.384;7.122;2024-03-02T13:06:52;14.50;1.00
2639;DHT22;1329;51.384;7.122;2024-03-02T13:09:21;14.60;1.00
2639;DHT22;1329;51.384;7.122;2024-03-02T13:11:49;14.60;1.00
2639;DHT22;1329;51.384;7.122;2024-03-02T13:14:17;14.70;1.00
2639;DHT22;1329;51.384;7.122;2024-03-02T13:16:45;14.70;1.00
2639;DHT22;1329;51.384;7.122;2024-03-02T13:19:13;14.70;1.00
2639;DHT22;1329;51.384;7.122;2024-03-02T13:21:41;14.80;1.00
2639;DHT22;1329;51.384;7.122;2024-03-02T13:24:08;14.80;1.00
2639;DHT22;1329;51.384;7.122;2024-03-02T13:26:35;14.80;1.00
2639;DHT22;1329;51.384;7.122;2024-03-02T13:29:03;14.80;1.00
2639;DHT22;1329;51.384;7.122;2024-03-02T13:31:31;14.80;1.00
2639;DHT22;1329;51.384;7.122;2024-03-02T13:33:59;14.80;1.00
2639;DHT22;1329;51.384;7.122;2024-03-02T13:36:26;14.80;1.00
2639;DHT22;1329;51.384;7.122;2024-03-02T13:38:53;14.80;1.00
2639;DHT22;1329;51.384;7.122;2024-03-02T13:41:21;14.80;1.00
2639;DHT22;1329;51.384;7.122;2024-03-02T13:43:48;14.80;1.00
2639;DHT22;1329;51.384;7.122;2024-03-02T13:46:16;14.80;1.00
2639;DHT22;1329;51.384;7.122;2024-03-02T13:48:44;14.80;1.00
2639;DHT22;1329;51.384;7.122;2024-03-02T13:51:12;14.80;1.00
2639;DHT22;1329;51.384;7.122;2024-03-02T13:53:39;14.80;1.00
2639;DHT22;1329;51.384;7.122;2024-03-02T13:56:07;14.80;1.00
2639;DHT22;1329;51.384;7.122;2024-03-02T13:58:34;14.80;1.00
2639;DHT22;1329;51.384;7.122;2024-03-02T14:01:02;14.90;1.00
2639;DHT22;1329;51.384;7.122;2024-03-02T14:03:30;14.90;1.00
2639;DHT22;1329;51.384;7.122;2024-03-02T14:05:58;15.00;1.00
2639;DHT22;1329;51.384;7.122;2024-03-02T14:08:26;15.00;1.00
2639;DHT22;1329;51.384;7.122;2024-03-02T14:10:53;15.10;1.00
2639;DHT22;1329;51.384;7.122;2024-03-02T14:13:21;15.10;1.00
2639;DHT22;1329;51.384;7.122;2024-03-02T14:15:48;15.20;1.00
2639;DHT22;1329;51.384;7.122;2024-03-02T14:18:16;15.20;1.00
2639;DHT22;1329;51.384;7.122;2024-03-02T14:20:43;15.20;1.00
2639;DHT22;1329;51.384;7.122;2024-03-02T14:23:12;15.30;1.00
2639;DHT22;1329;51.384;7.122;2024-03-02T14:25:39;15.30;1.00
2639;DHT22;1329;51.384;7.122;2024-03-02T14:28:07;15.20;1.00
2639;DHT22;1329;51.384;7.122;2024-03-02T14:30:34;15.20;1.00
2639;DHT22;1329;51.384;7.122;2024-03-02T14:33:03;15.20;1.00
2639;DHT22;1329;51.384;7.122;2024-03-02T14:35:30;15.20;1.00
2639;DHT22;1329;51.384;7.122;2024-03-02T14:37:58;15.20;1.00
2639;DHT22;1329;51.384;7.122;2024-03-02T14:40:26;15.20;1.00
2639;DHT22;1329;51.384;7.122;2024-03-02T14:42:55;15.30;1.00
2639;DHT22;1329;51.384;7.122;2024-03-02T14:45:22;15.30;1.00
2639;DHT22;1329;51.384;7.122;2024-03-02T14:47:50;15.30;1.00
2639;DHT22;1329;51.384;7.122;2024-03-02T14:50:18;15.30;1.00
2639;DHT22;1329;51.384;7.122;2024-03-02T14:52:46;15.40;1.00
2639;DHT22;1329;51.384;7.122;2024-03-02T14:55:15;15.40;1.00
2639;DHT22;1329;51.384;7.122;2024-03-02T14:57:44;15.40;1.00
2639;DHT22;1329;51.384;7.122;2024-03-02T15:00:12;15.40;1.00
2639;DHT22;1329;51.384;7.122;2024-03-02T15:02:39;15.40;1.00
2639;DHT22;1329;51.384;7.122;2024-03-02T15:05:07;15.40;1.00
2639;DHT22;1329;51.384;7.122;2024-03-02T15:07:34;15.40;1.00
2639;DHT22;1329;51.384;7.122;2024-03-02T15:10:02;15.40;1.00
2639;DHT22;1329;51.384;7.122;2024-03-02T15:12:30;15.40;1.00
2639;DHT22;1329;51.384;7.122;2024-03-02T15:15:00;15.40;1.00
2639;DHT22;1329;51.384;7.122;2024-03-02T15:17:28;15.30;1.00
2639;DHT22;1329;51.384;7.122;2024-03-02T15:19:56;15.30;1.00
2639;DHT22;1329;51.384;7.122;2024-03-02T15:22:23;15.20;1.00
2639;DHT22;1329;51.384;7.122;2024-03-02T15:24:50;15.30;1.00
2639;DHT22;1329;51.384;7.122;2024-03-02T15:27:19;15.20;1.00
2639;DHT22;1329;51.384;7.122;2024-03-02T15:29:46;15.20;1.00
2639;DHT22;1329;51.384;7.122;2024-03-02T15:32:17;15.20;1.00
2639;DHT22;1329;51.384;7.122;2024-03-02T15:34:44;15.20;1.00
2639;DHT22;1329;51.384;7.122;2024-03-02T15:37:12;15.10;1.00
2639;DHT22;1329;51.384;7.122;2024-03-02T15:39:39;15.10;1.00
2639;DHT22;1329;51.384;7.122;2024-03-02T15:42:07;15.10;1.00
2639;DHT22;1329;51.384;7.122;2024-03-02T15:44:36;15.10;1.00
2639;DHT22;1329;51.384;7.122;2024-03-02T15:47:04;15.10;1.00
2639;DHT22;1329;51.384;7.122;2024-03-02T15:49:32;15.00;1.00
2639;DHT22;1329;51.384;7.122;2024-03-02T15:52:00;15.00;1.00
2639;DHT22;1329;51.384;7.122;2024-03-02T15:54:27;15.00;1.00
2639;DHT22;1329;51.384;7.122;2024-03-02T15:56:54;14.90;1.00
2639;DHT22;1329;51.384;7.122;2024-03-02T15:59:22;14.90;1.00
2639;DHT22;1329;51.384;7.122;2024-03-02T16:01:49;14.80;1.00
2639;DHT22;1329;51.384;7.122;2024-03-02T16:04:17;14.80;1.00
2639;DHT22;1329;51.384;7.122;2024-03-02T16:06:45;14.80;1.00
2639;DHT22;1329;51.384;7.122;2024-03-02T16:09:16;14.80;1.00
2639;DHT22;1329;51.384;7.122;2024-03-02T16:11:43;14.80;1.00
2639;DHT22;1329;51.384;7.122;2024-03-02T16:14:11;14.70;1.00
2639;DHT22;1329;51.384;7.122;2024-03-02T16:16:40;14.70;1.00
2639;DHT22;1329;51.384;7.122;2024-03-02T16:19:08;14.70;1.00
2639;DHT22;1329;51.384;7.122;2024-03-02T16:21:35;14.70;1.00
2639;DHT22;1329;51.384;7.122;2024-03-02T16:24:04;14.70;1.00
2639;DHT22;1329;51.384;7.122;2024-03-02T16:26:31;14.60;1.00
2639;DHT22;1329;51.384;7.122;2024-03-02T16:29:02;14.60;1.00
2639;DHT22;1329;51.384;7.122;2024-03-02T16:31:29;14.60;1.00
2639;DHT22;1329;51.384;7.122;2024-03-02T16:33:57;14.50;1.00